Corrales, NM (87048)

1:45 AM MDT on September 03, 2015 (GMT -0600)
Salida Del Sol | | Change Station
CLOSE
Current Station
Personal Weather Station
Location: Corrales, NM
Elevation: 5075 ft
Nearby Weather Stations

Elev 5075 ft 35.25 °N, 106.62 °W | Updated 3 minutes ago

Mostly Cloudy
Mostly Cloudy
67.8 °F
Feels Like 67.8 °F
N
0.0
Wind Variable Wind from North
Gusts 0.0 mph

Today
High -- | Low -- °F
--% Chance of Precip.
Yesterday
High -- | Low -- °F
Precip. -- in
6:40 AM 7:30 PM
Waning Gibbous, 73% visible
Pressure 30.22 in
Visibility 10.0 miles
Clouds Clear
Dew Point 50 °F
Humidity 54%
Rainfall Not available.
Snow Depth Not available.
UV 0 out of 12
Pollen 7.90 out of 12
Air Quality Not available.
Flu Activity Not available.
METAR KAEG 030735Z AUTO 18003KT 10SM CLR 16/10 A3022 RMK AO2 T01560102
Pressure 30.22 in
Visibility 10.0 miles
Clouds Clear
Dew Point 50 °F
Humidity 54%
Rainfall Not available.
Snow Depth Not available.
UV 0 out of 12
Pollen 7.90 out of 12
Air Quality Not available.
Flu Activity Not available.
METAR KAEG 030735Z AUTO 18003KT 10SM CLR 16/10 A3022 RMK AO2 T01560102

10-Day Weather Forecast

×

Almanac

Astronomy

Sep. 03, 2015 Rise Set
Actual Time
Civil Twilight
Nautical Twilight
Astronomical Twilight
Moon
Length of Visible Light
Length of Day
Tomorrow will be .
, % of the Moon is Illuminated

Today's Extremes

State Highs State Lows

Community

WunderPhotos

Upload Photos

1,851,919 photos uploaded!

WunderBlogs® & News

Nearby

Air Quality

  Air Quality AQ Index Pollutant
Not available.

Snow Depth

Station Depth Elevation

Earthquake Activity

City Distance Mag. Time & Date
Minimum magnitude displayed is 2.5.

Coastal Water Temperatures

Place Temperature

Stations

Nearby Weather Stations

Station Location Temp. Windchill Dew Point Humidity Wind Precip. Elev Updated Type